sensor_id;sensor_type;location;lat;lon;timestamp;P1;durP1;ratioP1;P2;durP2;ratioP2
6388;SDS011;3227;42.654;23.360;2022-10-17T00:01:01;19.90;;;10.40;;
6388;SDS011;3227;42.654;23.360;2022-10-17T00:03:29;15.93;;;10.40;;
6388;SDS011;3227;42.654;23.360;2022-10-17T00:05:57;17.23;;;9.70;;
6388;SDS011;3227;42.654;23.360;2022-10-17T00:08:24;16.70;;;10.20;;
6388;SDS011;3227;42.654;23.360;2022-10-17T00:10:55;16.53;;;9.30;;
6388;SDS011;3227;42.654;23.360;2022-10-17T00:13:23;19.53;;;9.90;;
6388;SDS011;3227;42.654;23.360;2022-10-17T00:15:49;17.30;;;9.83;;
6388;SDS011;3227;42.654;23.360;2022-10-17T00:18:16;15.27;;;9.33;;
6388;SDS011;3227;42.654;23.360;2022-10-17T00:20:43;15.57;;;9.30;;
6388;SDS011;3227;42.654;23.360;2022-10-17T00:23:11;18.80;;;10.00;;
6388;SDS011;3227;42.654;23.360;2022-10-17T00:25:38;12.77;;;8.93;;
6388;SDS011;3227;42.654;23.360;2022-10-17T00:28:05;16.87;;;10.17;;
6388;SDS011;3227;42.654;23.360;2022-10-17T00:30:35;17.00;;;9.80;;
6388;SDS011;3227;42.654;23.360;2022-10-17T00:33:02;16.43;;;10.37;;
6388;SDS011;3227;42.654;23.360;2022-10-17T00:35:29;16.63;;;9.57;;
6388;SDS011;3227;42.654;23.360;2022-10-17T00:37:56;18.70;;;10.67;;
6388;SDS011;3227;42.654;23.360;2022-10-17T00:40:24;14.40;;;9.43;;
6388;SDS011;3227;42.654;23.360;2022-10-17T00:42:51;15.37;;;10.13;;
6388;SDS011;3227;42.654;23.360;2022-10-17T00:45:20;15.87;;;9.70;;
6388;SDS011;3227;42.654;23.360;2022-10-17T00:47:50;15.70;;;8.83;;
6388;SDS011;3227;42.654;23.360;2022-10-17T00:50:21;14.23;;;8.00;;
6388;SDS011;3227;42.654;23.360;2022-10-17T00:52:49;11.30;;;7.13;;
6388;SDS011;3227;42.654;23.360;2022-10-17T00:55:18;14.67;;;7.90;;
6388;SDS011;3227;42.654;23.360;2022-10-17T00:57:48;11.00;;;6.90;;
6388;SDS011;3227;42.654;23.360;2022-10-17T01:00:16;12.77;;;7.47;;
6388;SDS011;3227;42.654;23.360;2022-10-17T01:02:43;12.67;;;7.90;;
6388;SDS011;3227;42.654;23.360;2022-10-17T01:05:10;12.83;;;8.43;;
6388;SDS011;3227;42.654;23.360;2022-10-17T01:07:38;13.67;;;7.80;;
6388;SDS011;3227;42.654;23.360;2022-10-17T01:10:06;13.17;;;8.03;;
6388;SDS011;3227;42.654;23.360;2022-10-17T01:12:37;12.63;;;8.80;;
6388;SDS011;3227;42.654;23.360;2022-10-17T01:15:17;11.63;;;7.60;;
6388;SDS011;3227;42.654;23.360;2022-10-17T01:17:57;12.63;;;6.90;;
6388;SDS011;3227;42.654;23.360;2022-10-17T01:23:52;10.17;;;6.70;;
6388;SDS011;3227;42.654;23.360;2022-10-17T01:26:32;9.80;;;6.67;;
6388;SDS011;3227;42.654;23.360;2022-10-17T01:29:20;12.40;;;6.63;;
6388;SDS011;3227;42.654;23.360;2022-10-17T01:31:59;13.40;;;7.07;;
6388;SDS011;3227;42.654;23.360;2022-10-17T01:34:30;11.47;;;7.07;;
6388;SDS011;3227;42.654;23.360;2022-10-17T01:37:01;12.20;;;6.47;;
6388;SDS011;3227;42.654;23.360;2022-10-17T01:39:34;11.30;;;6.60;;
6388;SDS011;3227;42.654;23.360;2022-10-17T01:42:09;11.43;;;6.93;;
6388;SDS011;3227;42.654;23.360;2022-10-17T01:44:43;12.17;;;6.60;;
6388;SDS011;3227;42.654;23.360;2022-10-17T01:47:18;11.63;;;6.57;;
6388;SDS011;3227;42.654;23.360;2022-10-17T01:49:47;11.37;;;6.60;;
6388;SDS011;3227;42.654;23.360;2022-10-17T01:52:18;10.07;;;6.33;;
6388;SDS011;3227;42.654;23.360;2022-10-17T01:54:49;10.53;;;6.20;;
6388;SDS011;3227;42.654;23.360;2022-10-17T01:57:20;12.50;;;6.47;;
6388;SDS011;3227;42.654;23.360;2022-10-17T01:59:52;10.83;;;6.40;;
6388;SDS011;3227;42.654;23.360;2022-10-17T02:02:23;11.50;;;6.50;;
6388;SDS011;3227;42.654;23.360;2022-10-17T02:04:52;11.37;;;6.20;;
6388;SDS011;3227;42.654;23.360;2022-10-17T02:07:22;9.30;;;6.13;;
6388;SDS011;3227;42.654;23.360;2022-10-17T02:09:48;10.80;;;5.63;;
6388;SDS011;3227;42.654;23.360;2022-10-17T02:12:21;9.07;;;5.30;;
6388;SDS011;3227;42.654;23.360;2022-10-17T02:15:05;11.07;;;6.20;;
6388;SDS011;3227;42.654;23.360;2022-10-17T02:18:01;9.67;;;5.97;;
6388;SDS011;3227;42.654;23.360;2022-10-17T02:20:46;9.90;;;6.30;;
6388;SDS011;3227;42.654;23.360;2022-10-17T02:23:19;9.67;;;6.20;;
6388;SDS011;3227;42.654;23.360;2022-10-17T02:25:54;8.30;;;5.50;;
6388;SDS011;3227;42.654;23.360;2022-10-17T02:28:29;9.27;;;6.03;;
6388;SDS011;3227;42.654;23.360;2022-10-17T02:31:05;9.17;;;6.00;;
6388;SDS011;3227;42.654;23.360;2022-10-17T02:33:38;10.77;;;6.33;;
6388;SDS011;3227;42.654;23.360;2022-10-17T02:36:10;9.63;;;6.30;;
6388;SDS011;3227;42.654;23.360;2022-10-17T02:38:40;12.60;;;6.73;;
6388;SDS011;3227;42.654;23.360;2022-10-17T02:41:09;10.63;;;6.57;;
6388;SDS011;3227;42.654;23.360;2022-10-17T02:43:38;11.50;;;6.10;;
6388;SDS011;3227;42.654;23.360;2022-10-17T02:46:09;11.07;;;5.90;;
6388;SDS011;3227;42.654;23.360;2022-10-17T02:48:46;9.67;;;6.20;;
6388;SDS011;3227;42.654;23.360;2022-10-17T02:51:18;12.03;;;6.50;;
6388;SDS011;3227;42.654;23.360;2022-10-17T02:53:54;10.70;;;6.37;;
6388;SDS011;3227;42.654;23.360;2022-10-17T02:56:27;11.43;;;6.57;;
6388;SDS011;3227;42.654;23.360;2022-10-17T02:58:59;15.50;;;7.07;;
6388;SDS011;3227;42.654;23.360;2022-10-17T03:01:28;8.63;;;5.83;;
6388;SDS011;3227;42.654;23.360;2022-10-17T03:04:07;12.20;;;6.50;;
6388;SDS011;3227;42.654;23.360;2022-10-17T03:06:46;11.93;;;6.40;;
6388;SDS011;3227;42.654;23.360;2022-10-17T03:09:14;11.00;;;6.33;;
6388;SDS011;3227;42.654;23.360;2022-10-17T03:11:41;10.13;;;6.60;;
6388;SDS011;3227;42.654;23.360;2022-10-17T03:14:08;10.30;;;6.10;;
6388;SDS011;3227;42.654;23.360;2022-10-17T03:16:35;10.03;;;6.40;;
6388;SDS011;3227;42.654;23.360;2022-10-17T03:19:02;10.10;;;6.53;;
6388;SDS011;3227;42.654;23.360;2022-10-17T03:21:30;10.93;;;6.63;;
6388;SDS011;3227;42.654;23.360;2022-10-17T03:23:57;14.30;;;6.43;;
6388;SDS011;3227;42.654;23.360;2022-10-17T03:26:24;16.10;;;6.70;;
6388;SDS011;3227;42.654;23.360;2022-10-17T03:28:51;11.47;;;6.87;;
6388;SDS011;3227;42.654;23.360;2022-10-17T03:31:17;11.80;;;6.70;;
6388;SDS011;3227;42.654;23.360;2022-10-17T03:33:44;12.73;;;7.17;;
6388;SDS011;3227;42.654;23.360;2022-10-17T03:36:12;12.30;;;7.80;;
6388;SDS011;3227;42.654;23.360;2022-10-17T03:38:42;14.93;;;7.43;;
6388;SDS011;3227;42.654;23.360;2022-10-17T03:41:09;12.73;;;8.00;;
6388;SDS011;3227;42.654;23.360;2022-10-17T03:43:36;17.87;;;7.93;;
6388;SDS011;3227;42.654;23.360;2022-10-17T03:46:03;11.60;;;6.93;;
6388;SDS011;3227;42.654;23.360;2022-10-17T03:48:30;14.90;;;9.13;;
6388;SDS011;3227;42.654;23.360;2022-10-17T03:50:58;14.50;;;8.30;;
6388;SDS011;3227;42.654;23.360;2022-10-17T03:53:26;12.97;;;7.57;;
6388;SDS011;3227;42.654;23.360;2022-10-17T03:55:55;13.20;;;7.70;;
6388;SDS011;3227;42.654;23.360;2022-10-17T03:58:22;16.13;;;8.30;;
6388;SDS011;3227;42.654;23.360;2022-10-17T04:00:49;14.50;;;8.50;;
6388;SDS011;3227;42.654;23.360;2022-10-17T04:03:16;14.17;;;7.97;;
6388;SDS011;3227;42.654;23.360;2022-10-17T04:05:43;12.03;;;7.83;;
6388;SDS011;3227;42.654;23.360;2022-10-17T04:08:10;11.67;;;7.80;;
6388;SDS011;3227;42.654;23.360;2022-10-17T04:10:36;16.67;;;7.93;;
6388;SDS011;3227;42.654;23.360;2022-10-17T04:13:04;22.43;;;9.43;;
6388;SDS011;3227;42.654;23.360;2022-10-17T04:15:31;14.27;;;8.97;;
6388;SDS011;3227;42.654;23.360;2022-10-17T04:17:58;14.60;;;9.43;;
6388;SDS011;3227;42.654;23.360;2022-10-17T04:20:25;16.93;;;8.80;;
6388;SDS011;3227;42.654;23.360;2022-10-17T04:22:52;17.57;;;9.50;;
6388;SDS011;3227;42.654;23.360;2022-10-17T04:25:18;22.73;;;9.93;;
6388;SDS011;3227;42.654;23.360;2022-10-17T04:27:45;21.27;;;10.83;;
6388;SDS011;3227;42.654;23.360;2022-10-17T04:30:14;21.03;;;9.67;;
6388;SDS011;3227;42.654;23.360;2022-10-17T04:32:41;21.50;;;10.07;;
6388;SDS011;3227;42.654;23.360;2022-10-17T04:35:08;30.17;;;11.13;;
6388;SDS011;3227;42.654;23.360;2022-10-17T04:37:35;26.97;;;11.23;;
6388;SDS011;3227;42.654;23.360;2022-10-17T04:40:01;23.53;;;10.90;;
6388;SDS011;3227;42.654;23.360;2022-10-17T04:42:29;27.57;;;10.50;;
6388;SDS011;3227;42.654;23.360;2022-10-17T04:44:55;25.20;;;11.40;;
6388;SDS011;3227;42.654;23.360;2022-10-17T04:47:24;24.93;;;11.40;;
6388;SDS011;3227;42.654;23.360;2022-10-17T04:49:50;23.73;;;11.17;;
6388;SDS011;3227;42.654;23.360;2022-10-17T04:52:17;25.33;;;11.63;;
6388;SDS011;3227;42.654;23.360;2022-10-17T04:54:44;29.63;;;12.77;;
6388;SDS011;3227;42.654;23.360;2022-10-17T04:57:11;27.17;;;13.83;;
6388;SDS011;3227;42.654;23.360;2022-10-17T04:59:38;35.43;;;14.80;;
6388;SDS011;3227;42.654;23.360;2022-10-17T05:02:04;33.27;;;14.67;;
6388;SDS011;3227;42.654;23.360;2022-10-17T05:04:39;40.70;;;15.80;;
6388;SDS011;3227;42.654;23.360;2022-10-17T05:07:20;53.07;;;13.90;;
6388;SDS011;3227;42.654;23.360;2022-10-17T05:09:47;45.07;;;14.57;;
6388;SDS011;3227;42.654;23.360;2022-10-17T05:12:14;38.30;;;15.07;;
6388;SDS011;3227;42.654;23.360;2022-10-17T05:14:41;44.00;;;15.07;;
6388;SDS011;3227;42.654;23.360;2022-10-17T05:17:08;43.83;;;13.93;;
6388;SDS011;3227;42.654;23.360;2022-10-17T05:19:34;38.37;;;15.17;;
6388;SDS011;3227;42.654;23.360;2022-10-17T05:22:03;29.10;;;13.57;;
6388;SDS011;3227;42.654;23.360;2022-10-17T05:24:29;21.53;;;12.10;;
6388;SDS011;3227;42.654;23.360;2022-10-17T05:26:56;26.63;;;10.97;;
6388;SDS011;3227;42.654;23.360;2022-10-17T05:29:23;24.53;;;11.13;;
6388;SDS011;3227;42.654;23.360;2022-10-17T05:31:50;24.53;;;9.87;;
6388;SDS011;3227;42.654;23.360;2022-10-17T05:34:17;18.53;;;8.90;;
6388;SDS011;3227;42.654;23.360;2022-10-17T05:36:43;19.00;;;9.20;;
6388;SDS011;3227;42.654;23.360;2022-10-17T05:39:12;19.93;;;8.93;;
6388;SDS011;3227;42.654;23.360;2022-10-17T05:41:43;20.70;;;8.80;;
6388;SDS011;3227;42.654;23.360;2022-10-17T05:44:10;26.43;;;9.50;;
6388;SDS011;3227;42.654;23.360;2022-10-17T05:46:37;14.87;;;8.73;;
6388;SDS011;3227;42.654;23.360;2022-10-17T05:49:04;20.00;;;9.87;;
6388;SDS011;3227;42.654;23.360;2022-10-17T05:51:31;19.03;;;9.73;;
6388;SDS011;3227;42.654;23.360;2022-10-17T05:53:58;23.17;;;9.40;;
6388;SDS011;3227;42.654;23.360;2022-10-17T05:56:27;17.00;;;8.53;;
6388;SDS011;3227;42.654;23.360;2022-10-17T05:58:53;17.37;;;9.00;;
6388;SDS011;3227;42.654;23.360;2022-10-17T06:01:20;12.83;;;7.30;;
6388;SDS011;3227;42.654;23.360;2022-10-17T06:03:48;15.27;;;8.13;;
6388;SDS011;3227;42.654;23.360;2022-10-17T06:06:15;20.30;;;9.23;;
6388;SDS011;3227;42.654;23.360;2022-10-17T06:08:43;15.00;;;8.20;;
6388;SDS011;3227;42.654;23.360;2022-10-17T06:11:10;18.50;;;9.77;;
6388;SDS011;3227;42.654;23.360;2022-10-17T06:13:39;17.90;;;9.60;;
6388;SDS011;3227;42.654;23.360;2022-10-17T06:16:06;13.20;;;8.07;;
6388;SDS011;3227;42.654;23.360;2022-10-17T06:18:33;16.93;;;7.63;;
6388;SDS011;3227;42.654;23.360;2022-10-17T06:21:01;23.30;;;9.33;;
6388;SDS011;3227;42.654;23.360;2022-10-17T06:23:29;14.97;;;9.27;;
6388;SDS011;3227;42.654;23.360;2022-10-17T06:25:57;15.70;;;8.33;;
6388;SDS011;3227;42.654;23.360;2022-10-17T06:28:24;14.63;;;8.57;;
6388;SDS011;3227;42.654;23.360;2022-10-17T06:30:53;20.77;;;10.53;;
6388;SDS011;3227;42.654;23.360;2022-10-17T06:33:20;18.83;;;9.87;;
6388;SDS011;3227;42.654;23.360;2022-10-17T06:35:49;21.27;;;11.50;;
6388;SDS011;3227;42.654;23.360;2022-10-17T06:38:16;13.73;;;7.53;;
6388;SDS011;3227;42.654;23.360;2022-10-17T06:40:43;14.33;;;8.17;;
6388;SDS011;3227;42.654;23.360;2022-10-17T06:43:10;23.67;;;12.37;;
6388;SDS011;3227;42.654;23.360;2022-10-17T06:45:37;19.20;;;9.37;;
6388;SDS011;3227;42.654;23.360;2022-10-17T06:48:05;24.70;;;9.17;;
6388;SDS011;3227;42.654;23.360;2022-10-17T06:50:33;18.00;;;9.57;;
6388;SDS011;3227;42.654;23.360;2022-10-17T06:53:00;17.60;;;10.07;;
6388;SDS011;3227;42.654;23.360;2022-10-17T06:55:27;24.43;;;10.67;;
6388;SDS011;3227;42.654;23.360;2022-10-17T06:57:55;18.87;;;12.73;;
6388;SDS011;3227;42.654;23.360;2022-10-17T07:00:22;19.83;;;12.53;;
6388;SDS011;3227;42.654;23.360;2022-10-17T07:02:50;24.63;;;12.70;;
6388;SDS011;3227;42.654;23.360;2022-10-17T07:05:19;20.47;;;12.87;;
6388;SDS011;3227;42.654;23.360;2022-10-17T07:07:45;25.03;;;12.03;;
6388;SDS011;3227;42.654;23.360;2022-10-17T07:10:12;20.57;;;13.27;;
6388;SDS011;3227;42.654;23.360;2022-10-17T07:12:39;27.33;;;13.53;;
6388;SDS011;3227;42.654;23.360;2022-10-17T07:15:06;22.40;;;13.73;;
6388;SDS011;3227;42.654;23.360;2022-10-17T07:17:34;21.10;;;14.17;;
6388;SDS011;3227;42.654;23.360;2022-10-17T07:20:00;20.37;;;13.23;;
6388;SDS011;3227;42.654;23.360;2022-10-17T07:22:29;28.53;;;12.63;;
6388;SDS011;3227;42.654;23.360;2022-10-17T07:24:55;20.73;;;12.53;;
6388;SDS011;3227;42.654;23.360;2022-10-17T07:27:22;20.97;;;12.37;;
6388;SDS011;3227;42.654;23.360;2022-10-17T07:29:49;25.80;;;13.13;;
6388;SDS011;3227;42.654;23.360;2022-10-17T07:32:16;25.47;;;13.87;;
6388;SDS011;3227;42.654;23.360;2022-10-17T07:34:42;27.20;;;13.80;;
6388;SDS011;3227;42.654;23.360;2022-10-17T07:37:14;25.13;;;14.87;;
6388;SDS011;3227;42.654;23.360;2022-10-17T07:39:43;28.80;;;15.90;;
6388;SDS011;3227;42.654;23.360;2022-10-17T07:42:09;26.53;;;15.87;;
6388;SDS011;3227;42.654;23.360;2022-10-17T07:44:38;27.77;;;16.10;;
6388;SDS011;3227;42.654;23.360;2022-10-17T07:47:05;28.53;;;15.77;;
6388;SDS011;3227;42.654;23.360;2022-10-17T07:49:32;29.37;;;15.03;;
6388;SDS011;3227;42.654;23.360;2022-10-17T07:51:58;25.70;;;16.30;;
6388;SDS011;3227;42.654;23.360;2022-10-17T07:54:25;26.67;;;17.10;;
6388;SDS011;3227;42.654;23.360;2022-10-17T07:56:53;27.90;;;15.63;;
6388;SDS011;3227;42.654;23.360;2022-10-17T07:59:20;26.57;;;15.97;;
6388;SDS011;3227;42.654;23.360;2022-10-17T08:01:48;29.07;;;15.17;;
6388;SDS011;3227;42.654;23.360;2022-10-17T08:04:15;28.60;;;16.00;;
6388;SDS011;3227;42.654;23.360;2022-10-17T08:06:42;26.27;;;16.07;;
6388;SDS011;3227;42.654;23.360;2022-10-17T08:09:09;29.70;;;17.03;;
6388;SDS011;3227;42.654;23.360;2022-10-17T08:11:36;30.10;;;16.57;;
6388;SDS011;3227;42.654;23.360;2022-10-17T08:14:04;28.23;;;16.60;;
6388;SDS011;3227;42.654;23.360;2022-10-17T08:16:31;31.10;;;15.33;;
6388;SDS011;3227;42.654;23.360;2022-10-17T08:18:58;31.43;;;17.17;;
6388;SDS011;3227;42.654;23.360;2022-10-17T08:21:24;30.33;;;21.80;;
6388;SDS011;3227;42.654;23.360;2022-10-17T08:23:51;24.70;;;16.17;;
6388;SDS011;3227;42.654;23.360;2022-10-17T08:26:18;32.93;;;17.53;;
6388;SDS011;3227;42.654;23.360;2022-10-17T08:28:45;34.87;;;16.93;;
6388;SDS011;3227;42.654;23.360;2022-10-17T08:31:14;25.90;;;15.63;;
6388;SDS011;3227;42.654;23.360;2022-10-17T08:33:43;26.50;;;16.73;;
6388;SDS011;3227;42.654;23.360;2022-10-17T08:36:11;26.47;;;16.33;;
6388;SDS011;3227;42.654;23.360;2022-10-17T08:38:39;28.20;;;16.73;;
6388;SDS011;3227;42.654;23.360;2022-10-17T08:41:12;24.57;;;14.43;;
6388;SDS011;3227;42.654;23.360;2022-10-17T08:43:50;31.00;;;14.97;;
6388;SDS011;3227;42.654;23.360;2022-10-17T08:46:30;23.40;;;14.67;;
6388;SDS011;3227;42.654;23.360;2022-10-17T08:49:00;25.67;;;14.80;;
6388;SDS011;3227;42.654;23.360;2022-10-17T08:51:30;26.80;;;15.03;;
6388;SDS011;3227;42.654;23.360;2022-10-17T08:54:01;26.40;;;15.37;;
6388;SDS011;3227;42.654;23.360;2022-10-17T08:56:37;25.60;;;15.17;;
6388;SDS011;3227;42.654;23.360;2022-10-17T08:59:10;22.70;;;15.23;;
6388;SDS011;3227;42.654;23.360;2022-10-17T09:01:42;29.10;;;14.67;;
6388;SDS011;3227;42.654;23.360;2022-10-17T09:07:05;21.10;;;12.43;;
6388;SDS011;3227;42.654;23.360;2022-10-17T09:09:39;23.00;;;12.50;;
6388;SDS011;3227;42.654;23.360;2022-10-17T09:12:14;20.00;;;11.17;;
6388;SDS011;3227;42.654;23.360;2022-10-17T09:18:08;20.00;;;10.93;;
6388;SDS011;3227;42.654;23.360;2022-10-17T09:20:39;26.13;;;12.13;;
6388;SDS011;3227;42.654;23.360;2022-10-17T09:23:09;23.27;;;11.27;;
6388;SDS011;3227;42.654;23.360;2022-10-17T09:25:41;18.13;;;10.37;;
6388;SDS011;3227;42.654;23.360;2022-10-17T09:28:11;21.40;;;10.50;;
6388;SDS011;3227;42.654;23.360;2022-10-17T09:30:42;22.37;;;9.80;;
6388;SDS011;3227;42.654;23.360;2022-10-17T09:33:12;21.30;;;9.40;;
6388;SDS011;3227;42.654;23.360;2022-10-17T09:35:41;20.43;;;9.33;;
6388;SDS011;3227;42.654;23.360;2022-10-17T09:38:15;18.43;;;7.47;;
6388;SDS011;3227;42.654;23.360;2022-10-17T09:40:44;11.83;;;6.83;;
6388;SDS011;3227;42.654;23.360;2022-10-17T09:43:15;14.80;;;7.53;;
6388;SDS011;3227;42.654;23.360;2022-10-17T09:45:44;14.83;;;7.07;;
6388;SDS011;3227;42.654;23.360;2022-10-17T09:48:23;15.87;;;7.20;;
6388;SDS011;3227;42.654;23.360;2022-10-17T09:50:54;13.57;;;6.93;;
6388;SDS011;3227;42.654;23.360;2022-10-17T09:53:22;14.93;;;7.10;;
6388;SDS011;3227;42.654;23.360;2022-10-17T09:55:55;14.57;;;7.30;;
6388;SDS011;3227;42.654;23.360;2022-10-17T09:58:38;13.27;;;6.53;;
6388;SDS011;3227;42.654;23.360;2022-10-17T10:01:13;9.07;;;5.07;;
6388;SDS011;3227;42.654;23.360;2022-10-17T10:03:44;17.83;;;6.17;;
6388;SDS011;3227;42.654;23.360;2022-10-17T10:06:12;10.70;;;6.00;;
6388;SDS011;3227;42.654;23.360;2022-10-17T10:08:47;10.57;;;5.30;;
6388;SDS011;3227;42.654;23.360;2022-10-17T10:11:15;9.67;;;5.33;;
6388;SDS011;3227;42.654;23.360;2022-10-17T10:13:44;13.60;;;5.27;;
6388;SDS011;3227;42.654;23.360;2022-10-17T10:16:14;12.20;;;4.97;;
6388;SDS011;3227;42.654;23.360;2022-10-17T10:18:48;9.97;;;4.90;;
6388;SDS011;3227;42.654;23.360;2022-10-17T10:21:16;10.20;;;5.37;;
6388;SDS011;3227;42.654;23.360;2022-10-17T10:23:45;10.50;;;4.67;;
6388;SDS011;3227;42.654;23.360;2022-10-17T10:26:31;8.90;;;4.57;;
6388;SDS011;3227;42.654;23.360;2022-10-17T10:29:04;11.07;;;4.70;;
6388;SDS011;3227;42.654;23.360;2022-10-17T10:31:44;10.37;;;4.50;;
6388;SDS011;3227;42.654;23.360;2022-10-17T10:34:15;9.60;;;4.13;;
6388;SDS011;3227;42.654;23.360;2022-10-17T10:36:49;8.90;;;4.13;;
6388;SDS011;3227;42.654;23.360;2022-10-17T10:42:22;10.47;;;4.00;;
6388;SDS011;3227;42.654;23.360;2022-10-17T10:44:52;10.10;;;4.30;;
6388;SDS011;3227;42.654;23.360;2022-10-17T10:47:23;7.97;;;4.13;;
6388;SDS011;3227;42.654;23.360;2022-10-17T10:50:05;7.33;;;4.17;;
6388;SDS011;3227;42.654;23.360;2022-10-17T10:52:42;7.07;;;3.83;;
6388;SDS011;3227;42.654;23.360;2022-10-17T10:55:21;5.90;;;3.40;;
6388;SDS011;3227;42.654;23.360;2022-10-17T10:57:52;11.10;;;3.60;;
6388;SDS011;3227;42.654;23.360;2022-10-17T11:00:36;6.27;;;3.60;;
6388;SDS011;3227;42.654;23.360;2022-10-17T11:03:13;7.10;;;3.70;;
6388;SDS011;3227;42.654;23.360;2022-10-17T11:05:45;7.33;;;3.50;;
6388;SDS011;3227;42.654;23.360;2022-10-17T11:08:19;8.33;;;4.00;;
6388;SDS011;3227;42.654;23.360;2022-10-17T11:10:55;7.47;;;3.70;;
6388;SDS011;3227;42.654;23.360;2022-10-17T11:13:30;8.40;;;3.70;;
6388;SDS011;3227;42.654;23.360;2022-10-17T11:16:14;7.37;;;3.47;;
6388;SDS011;3227;42.654;23.360;2022-10-17T11:18:47;15.47;;;4.60;;
6388;SDS011;3227;42.654;23.360;2022-10-17T11:21:22;6.97;;;3.80;;
6388;SDS011;3227;42.654;23.360;2022-10-17T11:23:58;11.73;;;4.70;;
6388;SDS011;3227;42.654;23.360;2022-10-17T11:26:28;10.43;;;4.20;;
6388;SDS011;3227;42.654;23.360;2022-10-17T11:29:01;15.37;;;3.60;;
6388;SDS011;3227;42.654;23.360;2022-10-17T11:31:32;6.67;;;3.50;;
6388;SDS011;3227;42.654;23.360;2022-10-17T11:34:04;7.80;;;3.90;;
6388;SDS011;3227;42.654;23.360;2022-10-17T11:36:40;7.60;;;3.93;;
6388;SDS011;3227;42.654;23.360;2022-10-17T11:39:10;10.33;;;4.00;;
6388;SDS011;3227;42.654;23.360;2022-10-17T11:41:41;10.47;;;3.70;;
6388;SDS011;3227;42.654;23.360;2022-10-17T11:44:14;11.33;;;4.20;;
6388;SDS011;3227;42.654;23.360;2022-10-17T11:46:48;6.73;;;3.50;;
6388;SDS011;3227;42.654;23.360;2022-10-17T11:49:23;10.03;;;3.80;;
6388;SDS011;3227;42.654;23.360;2022-10-17T11:51:59;7.97;;;3.83;;
6388;SDS011;3227;42.654;23.360;2022-10-17T11:54:36;6.57;;;3.43;;
6388;SDS011;3227;42.654;23.360;2022-10-17T11:57:14;6.20;;;3.40;;
6388;SDS011;3227;42.654;23.360;2022-10-17T11:59:59;6.30;;;3.53;;
6388;SDS011;3227;42.654;23.360;2022-10-17T12:02:35;6.77;;;3.80;;
6388;SDS011;3227;42.654;23.360;2022-10-17T12:05:13;8.13;;;4.20;;
6388;SDS011;3227;42.654;23.360;2022-10-17T12:07:50;11.57;;;4.20;;
6388;SDS011;3227;42.654;23.360;2022-10-17T12:10:24;9.17;;;4.00;;
6388;SDS011;3227;42.654;23.360;2022-10-17T12:16:35;7.30;;;4.20;;
6388;SDS011;3227;42.654;23.360;2022-10-17T12:19:18;15.60;;;6.50;;
6388;SDS011;3227;42.654;23.360;2022-10-17T12:21:55;8.20;;;4.10;;
6388;SDS011;3227;42.654;23.360;2022-10-17T12:24:28;11.57;;;3.97;;
6388;SDS011;3227;42.654;23.360;2022-10-17T12:30:03;10.77;;;5.40;;
6388;SDS011;3227;42.654;23.360;2022-10-17T12:32:32;8.97;;;3.83;;
6388;SDS011;3227;42.654;23.360;2022-10-17T12:35:00;16.10;;;5.27;;
6388;SDS011;3227;42.654;23.360;2022-10-17T12:40:51;8.70;;;3.30;;
6388;SDS011;3227;42.654;23.360;2022-10-17T12:54:53;7.00;;;4.07;;
6388;SDS011;3227;42.654;23.360;2022-10-17T12:57:28;8.97;;;3.63;;
6388;SDS011;3227;42.654;23.360;2022-10-17T13:00:00;9.57;;;3.67;;
6388;SDS011;3227;42.654;23.360;2022-10-17T13:02:29;6.60;;;3.50;;
6388;SDS011;3227;42.654;23.360;2022-10-17T13:05:02;9.93;;;4.73;;
6388;SDS011;3227;42.654;23.360;2022-10-17T13:07:32;18.40;;;7.73;;
6388;SDS011;3227;42.654;23.360;2022-10-17T13:10:01;11.23;;;4.10;;
6388;SDS011;3227;42.654;23.360;2022-10-17T13:12:32;10.97;;;3.60;;
6388;SDS011;3227;42.654;23.360;2022-10-17T13:15:02;6.67;;;3.40;;
6388;SDS011;3227;42.654;23.360;2022-10-17T13:17:32;6.63;;;3.20;;
6388;SDS011;3227;42.654;23.360;2022-10-17T13:20:00;11.30;;;3.30;;
6388;SDS011;3227;42.654;23.360;2022-10-17T13:22:29;6.40;;;3.20;;
6388;SDS011;3227;42.654;23.360;2022-10-17T13:25:05;6.60;;;3.23;;
6388;SDS011;3227;42.654;23.360;2022-10-17T13:27:35;10.23;;;3.33;;
6388;SDS011;3227;42.654;23.360;2022-10-17T13:30:19;10.90;;;3.60;;
6388;SDS011;3227;42.654;23.360;2022-10-17T13:32:48;6.73;;;3.00;;
6388;SDS011;3227;42.654;23.360;2022-10-17T13:35:16;8.77;;;2.90;;
6388;SDS011;3227;42.654;23.360;2022-10-17T13:37:48;5.83;;;3.00;;
6388;SDS011;3227;42.654;23.360;2022-10-17T13:40:16;7.23;;;3.07;;
6388;SDS011;3227;42.654;23.360;2022-10-17T13:42:46;6.07;;;2.90;;
6388;SDS011;3227;42.654;23.360;2022-10-17T13:45:16;6.80;;;3.30;;
6388;SDS011;3227;42.654;23.360;2022-10-17T13:47:45;5.30;;;2.85;;
6388;SDS011;3227;42.654;23.360;2022-10-17T13:50:18;4.88;;;2.50;;
6388;SDS011;3227;42.654;23.360;2022-10-17T13:53:04;5.27;;;2.70;;
6388;SDS011;3227;42.654;23.360;2022-10-17T13:55:51;7.57;;;2.80;;
6388;SDS011;3227;42.654;23.360;2022-10-17T13:58:24;8.17;;;2.63;;
6388;SDS011;3227;42.654;23.360;2022-10-17T14:00:52;5.17;;;2.73;;
6388;SDS011;3227;42.654;23.360;2022-10-17T14:03:20;5.87;;;2.97;;
6388;SDS011;3227;42.654;23.360;2022-10-17T14:05:58;6.87;;;3.53;;
6388;SDS011;3227;42.654;23.360;2022-10-17T14:08:31;6.90;;;3.87;;
6388;SDS011;3227;42.654;23.360;2022-10-17T14:10:59;8.23;;;3.60;;
6388;SDS011;3227;42.654;23.360;2022-10-17T14:13:29;6.20;;;3.43;;
6388;SDS011;3227;42.654;23.360;2022-10-17T14:16:00;6.60;;;3.60;;
6388;SDS011;3227;42.654;23.360;2022-10-17T14:18:28;13.53;;;4.20;;
6388;SDS011;3227;42.654;23.360;2022-10-17T14:20:59;6.93;;;3.70;;
6388;SDS011;3227;42.654;23.360;2022-10-17T14:23:33;9.33;;;3.80;;
6388;SDS011;3227;42.654;23.360;2022-10-17T14:26:06;10.77;;;4.50;;
6388;SDS011;3227;42.654;23.360;2022-10-17T14:28:37;6.70;;;3.53;;
6388;SDS011;3227;42.654;23.360;2022-10-17T14:31:19;8.83;;;4.07;;
6388;SDS011;3227;42.654;23.360;2022-10-17T14:33:49;7.30;;;3.93;;
6388;SDS011;3227;42.654;23.360;2022-10-17T14:36:18;7.60;;;3.97;;
6388;SDS011;3227;42.654;23.360;2022-10-17T14:38:47;8.37;;;4.20;;
6388;SDS011;3227;42.654;23.360;2022-10-17T14:41:19;13.07;;;5.63;;
6388;SDS011;3227;42.654;23.360;2022-10-17T14:43:53;9.37;;;4.47;;
6388;SDS011;3227;42.654;23.360;2022-10-17T14:46:23;10.03;;;4.27;;
6388;SDS011;3227;42.654;23.360;2022-10-17T14:48:51;8.80;;;4.73;;
6388;SDS011;3227;42.654;23.360;2022-10-17T14:51:20;7.70;;;4.27;;
6388;SDS011;3227;42.654;23.360;2022-10-17T14:56:34;7.90;;;4.30;;
6388;SDS011;3227;42.654;23.360;2022-10-17T14:59:06;9.07;;;4.50;;
6388;SDS011;3227;42.654;23.360;2022-10-17T15:01:34;9.13;;;4.83;;
6388;SDS011;3227;42.654;23.360;2022-10-17T15:04:01;9.90;;;4.50;;
6388;SDS011;3227;42.654;23.360;2022-10-17T15:06:29;7.03;;;4.23;;
6388;SDS011;3227;42.654;23.360;2022-10-17T15:08:58;8.73;;;4.27;;
6388;SDS011;3227;42.654;23.360;2022-10-17T15:11:25;10.57;;;4.67;;
6388;SDS011;3227;42.654;23.360;2022-10-17T15:13:52;12.87;;;4.60;;
6388;SDS011;3227;42.654;23.360;2022-10-17T15:16:22;10.00;;;4.33;;
6388;SDS011;3227;42.654;23.360;2022-10-17T15:18:50;12.27;;;4.80;;
6388;SDS011;3227;42.654;23.360;2022-10-17T15:21:19;11.30;;;5.00;;
6388;SDS011;3227;42.654;23.360;2022-10-17T15:23:47;8.60;;;4.43;;
6388;SDS011;3227;42.654;23.360;2022-10-17T15:26:15;11.00;;;4.93;;
6388;SDS011;3227;42.654;23.360;2022-10-17T15:28:45;8.33;;;4.77;;
6388;SDS011;3227;42.654;23.360;2022-10-17T15:31:14;10.37;;;5.20;;
6388;SDS011;3227;42.654;23.360;2022-10-17T15:33:43;7.30;;;4.60;;
6388;SDS011;3227;42.654;23.360;2022-10-17T15:36:21;12.67;;;4.57;;
6388;SDS011;3227;42.654;23.360;2022-10-17T15:38:55;9.33;;;5.47;;
6388;SDS011;3227;42.654;23.360;2022-10-17T15:41:28;12.43;;;6.00;;
6388;SDS011;3227;42.654;23.360;2022-10-17T15:43:55;13.17;;;5.93;;